sensor_id;sensor_type;location;lat;lon;timestamp;P1;durP1;ratioP1;P2;durP2;ratioP2
26435;SDS011;15351;52.408;16.826;2023-04-29T00:06:38;23.60;;;18.80;;
26435;SDS011;15351;52.408;16.826;2023-04-29T00:09:13;24.90;;;18.90;;
26435;SDS011;15351;52.408;16.826;2023-04-29T00:12:39;24.20;;;18.10;;
26435;SDS011;15351;52.408;16.826;2023-04-29T00:15:20;27.90;;;18.50;;
26435;SDS011;15351;52.408;16.826;2023-04-29T00:18:25;23.60;;;18.20;;
26435;SDS011;15351;52.408;16.826;2023-04-29T00:21:23;26.50;;;19.40;;
26435;SDS011;15351;52.408;16.826;2023-04-29T00:24:01;25.40;;;19.00;;
26435;SDS011;15351;52.408;16.826;2023-04-29T00:26:37;24.70;;;18.20;;
26435;SDS011;15351;52.408;16.826;2023-04-29T00:29:28;26.00;;;18.50;;
26435;SDS011;15351;52.408;16.826;2023-04-29T00:32:10;26.00;;;18.50;;
26435;SDS011;15351;52.408;16.826;2023-04-29T00:35:13;26.30;;;18.00;;
26435;SDS011;15351;52.408;16.826;2023-04-29T00:37:44;24.90;;;18.20;;
26435;SDS011;15351;52.408;16.826;2023-04-29T00:40:11;24.40;;;17.80;;
26435;SDS011;15351;52.408;16.826;2023-04-29T00:43:02;26.60;;;18.70;;
26435;SDS011;15351;52.408;16.826;2023-04-29T00:45:51;24.20;;;18.40;;
26435;SDS011;15351;52.408;16.826;2023-04-29T00:48:47;23.70;;;17.60;;
26435;SDS011;15351;52.408;16.826;2023-04-29T00:54:26;24.30;;;17.40;;
26435;SDS011;15351;52.408;16.826;2023-04-29T00:57:29;21.80;;;17.00;;
26435;SDS011;15351;52.408;16.826;2023-04-29T01:00:04;23.60;;;17.60;;
26435;SDS011;15351;52.408;16.826;2023-04-29T01:02:31;24.30;;;17.40;;
26435;SDS011;15351;52.408;16.826;2023-04-29T01:05:06;24.30;;;17.60;;
26435;SDS011;15351;52.408;16.826;2023-04-29T01:07:36;24.90;;;17.20;;
26435;SDS011;15351;52.408;16.826;2023-04-29T01:16:23;24.10;;;18.20;;
26435;SDS011;15351;52.408;16.826;2023-04-29T01:25:25;26.00;;;17.60;;
26435;SDS011;15351;52.408;16.826;2023-04-29T01:28:47;26.60;;;18.80;;
26435;SDS011;15351;52.408;16.826;2023-04-29T01:35:44;23.40;;;18.40;;
26435;SDS011;15351;52.408;16.826;2023-04-29T01:45:19;23.00;;;17.80;;
26435;SDS011;15351;52.408;16.826;2023-04-29T01:48:13;24.40;;;18.10;;
26435;SDS011;15351;52.408;16.826;2023-04-29T01:51:08;25.60;;;17.30;;
26435;SDS011;15351;52.408;16.826;2023-04-29T01:53:37;23.30;;;17.80;;
26435;SDS011;15351;52.408;16.826;2023-04-29T01:56:10;26.30;;;18.10;;
26435;SDS011;15351;52.408;16.826;2023-04-29T01:59:13;23.40;;;17.60;;
26435;SDS011;15351;52.408;16.826;2023-04-29T02:02:09;24.70;;;17.50;;
26435;SDS011;15351;52.408;16.826;2023-04-29T02:04:48;22.80;;;17.30;;
26435;SDS011;15351;52.408;16.826;2023-04-29T02:07:51;23.40;;;17.20;;
26435;SDS011;15351;52.408;16.826;2023-04-29T02:10:22;23.50;;;17.50;;
26435;SDS011;15351;52.408;16.826;2023-04-29T02:13:05;22.70;;;17.70;;
26435;SDS011;15351;52.408;16.826;2023-04-29T02:15:40;23.10;;;17.90;;
26435;SDS011;15351;52.408;16.826;2023-04-29T02:18:08;25.60;;;17.90;;
26435;SDS011;15351;52.408;16.826;2023-04-29T02:20:35;25.40;;;17.70;;
26435;SDS011;15351;52.408;16.826;2023-04-29T02:23:10;24.50;;;18.30;;
26435;SDS011;15351;52.408;16.826;2023-04-29T02:25:44;26.30;;;18.10;;
26435;SDS011;15351;52.408;16.826;2023-04-29T02:28:13;22.30;;;17.90;;
26435;SDS011;15351;52.408;16.826;2023-04-29T02:34:01;27.10;;;18.70;;
26435;SDS011;15351;52.408;16.826;2023-04-29T02:36:35;29.80;;;18.90;;
26435;SDS011;15351;52.408;16.826;2023-04-29T02:39:27;21.80;;;16.50;;
26435;SDS011;15351;52.408;16.826;2023-04-29T02:41:54;22.60;;;16.50;;
26435;SDS011;15351;52.408;16.826;2023-04-29T02:44:21;21.40;;;16.70;;
26435;SDS011;15351;52.408;16.826;2023-04-29T02:47:02;21.10;;;16.60;;
26435;SDS011;15351;52.408;16.826;2023-04-29T02:49:30;25.50;;;17.40;;
26435;SDS011;15351;52.408;16.826;2023-04-29T02:51:57;22.70;;;16.00;;
26435;SDS011;15351;52.408;16.826;2023-04-29T02:54:30;21.60;;;15.80;;
26435;SDS011;15351;52.408;16.826;2023-04-29T02:56:59;21.80;;;16.10;;
26435;SDS011;15351;52.408;16.826;2023-04-29T02:59:33;20.20;;;16.30;;
26435;SDS011;15351;52.408;16.826;2023-04-29T03:02:04;21.10;;;16.20;;
26435;SDS011;15351;52.408;16.826;2023-04-29T03:04:30;23.50;;;16.60;;
26435;SDS011;15351;52.408;16.826;2023-04-29T03:06:57;23.00;;;15.80;;
26435;SDS011;15351;52.408;16.826;2023-04-29T03:09:25;20.90;;;15.80;;
26435;SDS011;15351;52.408;16.826;2023-04-29T03:11:51;22.10;;;16.10;;
26435;SDS011;15351;52.408;16.826;2023-04-29T03:14:19;18.40;;;15.90;;
26435;SDS011;15351;52.408;16.826;2023-04-29T03:16:46;24.80;;;16.20;;
26435;SDS011;15351;52.408;16.826;2023-04-29T03:19:16;24.40;;;16.10;;
26435;SDS011;15351;52.408;16.826;2023-04-29T03:21:43;19.90;;;14.60;;
26435;SDS011;15351;52.408;16.826;2023-04-29T03:24:10;18.70;;;15.10;;
26435;SDS011;15351;52.408;16.826;2023-04-29T03:26:39;19.80;;;15.30;;
26435;SDS011;15351;52.408;16.826;2023-04-29T03:29:08;23.00;;;16.30;;
26435;SDS011;15351;52.408;16.826;2023-04-29T03:31:34;24.10;;;15.70;;
26435;SDS011;15351;52.408;16.826;2023-04-29T03:34:01;22.20;;;14.60;;
26435;SDS011;15351;52.408;16.826;2023-04-29T03:36:27;20.20;;;14.70;;
26435;SDS011;15351;52.408;16.826;2023-04-29T03:39:06;17.70;;;14.70;;
26435;SDS011;15351;52.408;16.826;2023-04-29T03:41:33;21.50;;;15.30;;
26435;SDS011;15351;52.408;16.826;2023-04-29T03:43:59;27.20;;;16.70;;
26435;SDS011;15351;52.408;16.826;2023-04-29T03:46:28;20.60;;;15.10;;
26435;SDS011;15351;52.408;16.826;2023-04-29T03:48:56;21.30;;;15.30;;
26435;SDS011;15351;52.408;16.826;2023-04-29T03:51:31;23.00;;;16.10;;
26435;SDS011;15351;52.408;16.826;2023-04-29T03:54:05;21.10;;;16.50;;
26435;SDS011;15351;52.408;16.826;2023-04-29T04:00:00;24.30;;;17.90;;
26435;SDS011;15351;52.408;16.826;2023-04-29T04:02:47;22.80;;;17.20;;
26435;SDS011;15351;52.408;16.826;2023-04-29T04:05:14;21.30;;;17.20;;
26435;SDS011;15351;52.408;16.826;2023-04-29T04:07:47;22.50;;;17.50;;
26435;SDS011;15351;52.408;16.826;2023-04-29T04:10:29;23.70;;;18.40;;
26435;SDS011;15351;52.408;16.826;2023-04-29T04:12:56;24.40;;;18.90;;
26435;SDS011;15351;52.408;16.826;2023-04-29T04:15:23;27.10;;;19.20;;
26435;SDS011;15351;52.408;16.826;2023-04-29T04:17:50;25.90;;;18.60;;
26435;SDS011;15351;52.408;16.826;2023-04-29T04:20:16;24.40;;;17.90;;
26435;SDS011;15351;52.408;16.826;2023-04-29T04:22:43;25.40;;;18.80;;
26435;SDS011;15351;52.408;16.826;2023-04-29T04:25:17;23.90;;;18.20;;
26435;SDS011;15351;52.408;16.826;2023-04-29T04:27:44;23.00;;;18.30;;
26435;SDS011;15351;52.408;16.826;2023-04-29T04:30:18;26.50;;;18.20;;
26435;SDS011;15351;52.408;16.826;2023-04-29T04:32:49;24.60;;;17.90;;
26435;SDS011;15351;52.408;16.826;2023-04-29T04:35:19;23.00;;;16.80;;
26435;SDS011;15351;52.408;16.826;2023-04-29T04:37:45;25.10;;;17.50;;
26435;SDS011;15351;52.408;16.826;2023-04-29T04:40:12;23.50;;;17.90;;
26435;SDS011;15351;52.408;16.826;2023-04-29T04:42:58;23.10;;;18.40;;
26435;SDS011;15351;52.408;16.826;2023-04-29T04:45:29;27.40;;;18.10;;
26435;SDS011;15351;52.408;16.826;2023-04-29T04:47:57;22.20;;;16.10;;
26435;SDS011;15351;52.408;16.826;2023-04-29T04:50:27;21.10;;;16.50;;
26435;SDS011;15351;52.408;16.826;2023-04-29T04:53:01;21.60;;;17.50;;
26435;SDS011;15351;52.408;16.826;2023-04-29T04:55:49;23.60;;;17.80;;
26435;SDS011;15351;52.408;16.826;2023-04-29T04:58:19;26.40;;;17.80;;
26435;SDS011;15351;52.408;16.826;2023-04-29T05:00:50;26.20;;;16.80;;
26435;SDS011;15351;52.408;16.826;2023-04-29T05:03:17;19.90;;;15.70;;
26435;SDS011;15351;52.408;16.826;2023-04-29T05:05:58;20.80;;;15.90;;
26435;SDS011;15351;52.408;16.826;2023-04-29T05:08:32;20.40;;;16.70;;
26435;SDS011;15351;52.408;16.826;2023-04-29T05:10:59;24.70;;;17.40;;
26435;SDS011;15351;52.408;16.826;2023-04-29T05:13:37;23.40;;;16.60;;
26435;SDS011;15351;52.408;16.826;2023-04-29T05:16:22;20.60;;;15.10;;
26435;SDS011;15351;52.408;16.826;2023-04-29T05:18:53;18.60;;;15.60;;
26435;SDS011;15351;52.408;16.826;2023-04-29T05:21:22;20.60;;;15.80;;
26435;SDS011;15351;52.408;16.826;2023-04-29T05:23:51;19.60;;;16.50;;
26435;SDS011;15351;52.408;16.826;2023-04-29T05:26:26;25.40;;;16.80;;
26435;SDS011;15351;52.408;16.826;2023-04-29T05:28:54;21.80;;;15.60;;
26435;SDS011;15351;52.408;16.826;2023-04-29T05:31:26;20.30;;;15.10;;
26435;SDS011;15351;52.408;16.826;2023-04-29T05:34:00;18.20;;;15.00;;
26435;SDS011;15351;52.408;16.826;2023-04-29T05:36:28;20.50;;;15.70;;
26435;SDS011;15351;52.408;16.826;2023-04-29T05:38:56;21.20;;;16.00;;
26435;SDS011;15351;52.408;16.826;2023-04-29T05:41:35;18.80;;;15.80;;
26435;SDS011;15351;52.408;16.826;2023-04-29T05:44:24;21.00;;;15.30;;
26435;SDS011;15351;52.408;16.826;2023-04-29T05:50:10;18.80;;;15.00;;
26435;SDS011;15351;52.408;16.826;2023-04-29T05:53:22;20.00;;;15.20;;
26435;SDS011;15351;52.408;16.826;2023-04-29T05:56:31;20.70;;;15.50;;
26435;SDS011;15351;52.408;16.826;2023-04-29T05:59:33;19.70;;;16.20;;
26435;SDS011;15351;52.408;16.826;2023-04-29T06:05:28;18.30;;;13.90;;
26435;SDS011;15351;52.408;16.826;2023-04-29T06:08:26;18.60;;;14.50;;
26435;SDS011;15351;52.408;16.826;2023-04-29T06:11:16;18.60;;;15.10;;
26435;SDS011;15351;52.408;16.826;2023-04-29T06:13:42;21.30;;;15.80;;
26435;SDS011;15351;52.408;16.826;2023-04-29T06:16:10;20.90;;;15.60;;
26435;SDS011;15351;52.408;16.826;2023-04-29T06:18:40;21.20;;;14.90;;
26435;SDS011;15351;52.408;16.826;2023-04-29T06:22:11;22.60;;;15.20;;
26435;SDS011;15351;52.408;16.826;2023-04-29T06:24:43;17.40;;;14.00;;
26435;SDS011;15351;52.408;16.826;2023-04-29T06:27:13;16.70;;;14.20;;
26435;SDS011;15351;52.408;16.826;2023-04-29T06:29:46;18.40;;;14.60;;
26435;SDS011;15351;52.408;16.826;2023-04-29T06:32:12;19.10;;;15.30;;
26435;SDS011;15351;52.408;16.826;2023-04-29T06:34:51;21.30;;;15.20;;
26435;SDS011;15351;52.408;16.826;2023-04-29T06:37:56;18.60;;;13.80;;
26435;SDS011;15351;52.408;16.826;2023-04-29T06:40:41;18.60;;;14.10;;
26435;SDS011;15351;52.408;16.826;2023-04-29T06:43:26;18.60;;;14.50;;
26435;SDS011;15351;52.408;16.826;2023-04-29T06:46:11;19.70;;;14.80;;
26435;SDS011;15351;52.408;16.826;2023-04-29T06:48:58;19.80;;;14.80;;
26435;SDS011;15351;52.408;16.826;2023-04-29T06:51:32;16.50;;;13.50;;
26435;SDS011;15351;52.408;16.826;2023-04-29T06:53:59;18.70;;;14.00;;
26435;SDS011;15351;52.408;16.826;2023-04-29T06:56:26;17.50;;;13.80;;
26435;SDS011;15351;52.408;16.826;2023-04-29T06:58:52;18.00;;;14.40;;
26435;SDS011;15351;52.408;16.826;2023-04-29T07:01:18;17.70;;;14.20;;
26435;SDS011;15351;52.408;16.826;2023-04-29T07:06:39;16.70;;;12.70;;
26435;SDS011;15351;52.408;16.826;2023-04-29T07:09:06;17.60;;;13.20;;
26435;SDS011;15351;52.408;16.826;2023-04-29T07:11:34;18.00;;;13.90;;
26435;SDS011;15351;52.408;16.826;2023-04-29T07:14:00;17.70;;;13.60;;
26435;SDS011;15351;52.408;16.826;2023-04-29T07:16:29;17.70;;;14.30;;
26435;SDS011;15351;52.408;16.826;2023-04-29T07:18:57;19.60;;;14.50;;
26435;SDS011;15351;52.408;16.826;2023-04-29T07:21:23;20.20;;;13.50;;
26435;SDS011;15351;52.408;16.826;2023-04-29T07:23:50;17.60;;;12.90;;
26435;SDS011;15351;52.408;16.826;2023-04-29T07:26:23;18.50;;;13.80;;
26435;SDS011;15351;52.408;16.826;2023-04-29T07:28:49;16.00;;;12.90;;
26435;SDS011;15351;52.408;16.826;2023-04-29T07:31:17;17.40;;;13.90;;
26435;SDS011;15351;52.408;16.826;2023-04-29T07:33:44;17.40;;;13.90;;
26435;SDS011;15351;52.408;16.826;2023-04-29T07:36:15;20.40;;;14.40;;
26435;SDS011;15351;52.408;16.826;2023-04-29T07:38:45;16.00;;;13.10;;
26435;SDS011;15351;52.408;16.826;2023-04-29T07:41:12;18.00;;;13.70;;
26435;SDS011;15351;52.408;16.826;2023-04-29T07:43:41;18.70;;;13.60;;
26435;SDS011;15351;52.408;16.826;2023-04-29T07:46:17;17.10;;;13.80;;
26435;SDS011;15351;52.408;16.826;2023-04-29T07:48:53;20.20;;;13.70;;
26435;SDS011;15351;52.408;16.826;2023-04-29T07:51:26;16.50;;;13.20;;
26435;SDS011;15351;52.408;16.826;2023-04-29T07:53:53;16.60;;;13.80;;
26435;SDS011;15351;52.408;16.826;2023-04-29T07:56:28;16.70;;;13.80;;
26435;SDS011;15351;52.408;16.826;2023-04-29T07:59:00;17.80;;;14.00;;
26435;SDS011;15351;52.408;16.826;2023-04-29T08:01:48;17.80;;;13.90;;
26435;SDS011;15351;52.408;16.826;2023-04-29T08:04:15;19.40;;;15.80;;
26435;SDS011;15351;52.408;16.826;2023-04-29T08:06:51;17.50;;;15.20;;
26435;SDS011;15351;52.408;16.826;2023-04-29T08:09:17;18.30;;;14.70;;
26435;SDS011;15351;52.408;16.826;2023-04-29T08:11:56;17.40;;;14.00;;
26435;SDS011;15351;52.408;16.826;2023-04-29T08:14:22;19.80;;;14.50;;
26435;SDS011;15351;52.408;16.826;2023-04-29T08:16:54;16.80;;;12.60;;
26435;SDS011;15351;52.408;16.826;2023-04-29T08:19:21;15.40;;;12.50;;
26435;SDS011;15351;52.408;16.826;2023-04-29T08:21:49;19.30;;;13.00;;
26435;SDS011;15351;52.408;16.826;2023-04-29T08:24:16;18.40;;;13.80;;
26435;SDS011;15351;52.408;16.826;2023-04-29T08:26:48;16.00;;;13.60;;
26435;SDS011;15351;52.408;16.826;2023-04-29T08:29:15;17.50;;;14.20;;
26435;SDS011;15351;52.408;16.826;2023-04-29T08:31:41;17.00;;;13.60;;
26435;SDS011;15351;52.408;16.826;2023-04-29T08:34:08;15.70;;;12.80;;
26435;SDS011;15351;52.408;16.826;2023-04-29T08:36:35;17.40;;;13.00;;
26435;SDS011;15351;52.408;16.826;2023-04-29T08:39:04;16.20;;;13.30;;
26435;SDS011;15351;52.408;16.826;2023-04-29T08:41:30;16.90;;;13.40;;
26435;SDS011;15351;52.408;16.826;2023-04-29T08:44:03;16.70;;;13.00;;
26435;SDS011;15351;52.408;16.826;2023-04-29T08:46:37;17.70;;;14.10;;
26435;SDS011;15351;52.408;16.826;2023-04-29T08:49:04;20.60;;;13.80;;
26435;SDS011;15351;52.408;16.826;2023-04-29T08:51:31;20.60;;;13.80;;
26435;SDS011;15351;52.408;16.826;2023-04-29T08:54:01;15.70;;;13.20;;
26435;SDS011;15351;52.408;16.826;2023-04-29T08:56:31;16.60;;;13.40;;
26435;SDS011;15351;52.408;16.826;2023-04-29T08:59:00;19.40;;;14.00;;
26435;SDS011;15351;52.408;16.826;2023-04-29T09:01:28;18.30;;;15.00;;
26435;SDS011;15351;52.408;16.826;2023-04-29T09:03:57;17.00;;;14.80;;
26435;SDS011;15351;52.408;16.826;2023-04-29T09:06:34;17.90;;;14.60;;
26435;SDS011;15351;52.408;16.826;2023-04-29T09:09:01;15.80;;;13.10;;
26435;SDS011;15351;52.408;16.826;2023-04-29T09:11:32;18.10;;;13.50;;
26435;SDS011;15351;52.408;16.826;2023-04-29T09:14:02;15.90;;;13.70;;
26435;SDS011;15351;52.408;16.826;2023-04-29T09:16:58;15.90;;;14.10;;
26435;SDS011;15351;52.408;16.826;2023-04-29T09:25:57;15.60;;;13.70;;
26435;SDS011;15351;52.408;16.826;2023-04-29T09:32:45;13.90;;;12.40;;
26435;SDS011;15351;52.408;16.826;2023-04-29T09:35:47;15.60;;;12.80;;
26435;SDS011;15351;52.408;16.826;2023-04-29T09:38:28;15.30;;;12.90;;
26435;SDS011;15351;52.408;16.826;2023-04-29T09:44:51;16.20;;;13.60;;
26435;SDS011;15351;52.408;16.826;2023-04-29T09:47:30;18.00;;;13.90;;
26435;SDS011;15351;52.408;16.826;2023-04-29T09:50:09;15.50;;;13.30;;
26435;SDS011;15351;52.408;16.826;2023-04-29T09:56:47;10.90;;;9.40;;
26435;SDS011;15351;52.408;16.826;2023-04-29T09:59:47;10.20;;;9.00;;
26435;SDS011;15351;52.408;16.826;2023-04-29T10:02:21;9.60;;;8.10;;
26435;SDS011;15351;52.408;16.826;2023-04-29T10:05:07;9.40;;;8.10;;
26435;SDS011;15351;52.408;16.826;2023-04-29T10:07:45;10.20;;;8.90;;
26435;SDS011;15351;52.408;16.826;2023-04-29T10:10:18;11.20;;;9.70;;
26435;SDS011;15351;52.408;16.826;2023-04-29T10:12:53;11.30;;;9.90;;
26435;SDS011;15351;52.408;16.826;2023-04-29T10:19:25;10.90;;;9.60;;
26435;SDS011;15351;52.408;16.826;2023-04-29T10:23:29;11.30;;;10.10;;
26435;SDS011;15351;52.408;16.826;2023-04-29T10:30:00;11.30;;;9.80;;
26435;SDS011;15351;52.408;16.826;2023-04-29T10:33:21;11.80;;;10.50;;
26435;SDS011;15351;52.408;16.826;2023-04-29T10:36:47;12.50;;;10.50;;
26435;SDS011;15351;52.408;16.826;2023-04-29T10:40:00;11.30;;;10.10;;
26435;SDS011;15351;52.408;16.826;2023-04-29T10:42:45;12.80;;;10.40;;
26435;SDS011;15351;52.408;16.826;2023-04-29T10:45:27;12.40;;;10.40;;
26435;SDS011;15351;52.408;16.826;2023-04-29T10:48:16;12.10;;;10.90;;
26435;SDS011;15351;52.408;16.826;2023-04-29T10:54:24;13.40;;;10.40;;
26435;SDS011;15351;52.408;16.826;2023-04-29T10:57:18;11.80;;;10.40;;
26435;SDS011;15351;52.408;16.826;2023-04-29T11:01:06;11.90;;;10.70;;
26435;SDS011;15351;52.408;16.826;2023-04-29T11:06:58;15.40;;;13.10;;
26435;SDS011;15351;52.408;16.826;2023-04-29T11:09:41;14.70;;;12.40;;
26435;SDS011;15351;52.408;16.826;2023-04-29T11:12:54;14.40;;;11.80;;
26435;SDS011;15351;52.408;16.826;2023-04-29T11:20:02;14.20;;;12.60;;
26435;SDS011;15351;52.408;16.826;2023-04-29T11:22:29;16.60;;;12.60;;
26435;SDS011;15351;52.408;16.826;2023-04-29T11:25:19;14.00;;;12.30;;
26435;SDS011;15351;52.408;16.826;2023-04-29T11:27:57;13.40;;;12.00;;
26435;SDS011;15351;52.408;16.826;2023-04-29T11:30:49;14.30;;;12.90;;
26435;SDS011;15351;52.408;16.826;2023-04-29T11:33:25;15.40;;;13.90;;
26435;SDS011;15351;52.408;16.826;2023-04-29T11:36:02;17.80;;;14.30;;
26435;SDS011;15351;52.408;16.826;2023-04-29T11:39:19;15.60;;;13.30;;
26435;SDS011;15351;52.408;16.826;2023-04-29T11:42:06;14.00;;;12.60;;
26435;SDS011;15351;52.408;16.826;2023-04-29T11:44:43;15.60;;;13.80;;
26435;SDS011;15351;52.408;16.826;2023-04-29T11:47:42;16.10;;;14.40;;
26435;SDS011;15351;52.408;16.826;2023-04-29T11:50:10;16.40;;;14.60;;
26435;SDS011;15351;52.408;16.826;2023-04-29T11:56:08;15.40;;;13.90;;
26435;SDS011;15351;52.408;16.826;2023-04-29T12:02:07;17.10;;;15.30;;
26435;SDS011;15351;52.408;16.826;2023-04-29T12:08:49;15.50;;;13.90;;
26435;SDS011;15351;52.408;16.826;2023-04-29T12:19:33;16.80;;;15.00;;
26435;SDS011;15351;52.408;16.826;2023-04-29T12:22:52;16.60;;;14.80;;
26435;SDS011;15351;52.408;16.826;2023-04-29T12:26:03;15.10;;;13.60;;
26435;SDS011;15351;52.408;16.826;2023-04-29T12:28:55;15.70;;;14.10;;
26435;SDS011;15351;52.408;16.826;2023-04-29T12:35:32;15.50;;;13.40;;
26435;SDS011;15351;52.408;16.826;2023-04-29T12:45:34;10.60;;;9.50;;
26435;SDS011;15351;52.408;16.826;2023-04-29T12:53:55;10.00;;;8.90;;
26435;SDS011;15351;52.408;16.826;2023-04-29T13:01:27;9.80;;;8.90;;
26435;SDS011;15351;52.408;16.826;2023-04-29T13:05:14;10.80;;;9.70;;
26435;SDS011;15351;52.408;16.826;2023-04-29T13:11:59;9.60;;;8.60;;
26435;SDS011;15351;52.408;16.826;2023-04-29T13:15:12;10.90;;;9.80;;
26435;SDS011;15351;52.408;16.826;2023-04-29T13:21:08;10.10;;;8.80;;
26435;SDS011;15351;52.408;16.826;2023-04-29T13:24:27;10.30;;;9.20;;
26435;SDS011;15351;52.408;16.826;2023-04-29T13:27:43;8.00;;;7.20;;
26435;SDS011;15351;52.408;16.826;2023-04-29T13:39:48;6.20;;;5.60;;
26435;SDS011;15351;52.408;16.826;2023-04-29T13:46:26;6.50;;;5.90;;
26435;SDS011;15351;52.408;16.826;2023-04-29T13:49:00;7.10;;;6.40;;
26435;SDS011;15351;52.408;16.826;2023-04-29T13:52:06;7.40;;;6.70;;
26435;SDS011;15351;52.408;16.826;2023-04-29T13:59:06;7.00;;;4.40;;
26435;SDS011;15351;52.408;16.826;2023-04-29T14:25:58;10.70;;;7.50;;
26435;SDS011;15351;52.408;16.826;2023-04-29T15:03:05;11.30;;;8.90;;
26435;SDS011;15351;52.408;16.826;2023-04-29T15:10:02;9.60;;;8.00;;
26435;SDS011;15351;52.408;16.826;2023-04-29T15:13:59;9.20;;;7.90;;
26435;SDS011;15351;52.408;16.826;2023-04-29T15:17:52;9.70;;;8.10;;
26435;SDS011;15351;52.408;16.826;2023-04-29T15:21:16;9.50;;;8.50;;
26435;SDS011;15351;52.408;16.826;2023-04-29T15:23:50;9.10;;;8.20;;
26435;SDS011;15351;52.408;16.826;2023-04-29T15:29:38;6.10;;;5.50;;
26435;SDS011;15351;52.408;16.826;2023-04-29T15:33:01;6.10;;;5.40;;
26435;SDS011;15351;52.408;16.826;2023-04-29T15:40:10;8.90;;;7.70;;
26435;SDS011;15351;52.408;16.826;2023-04-29T15:56:01;8.30;;;7.50;;
26435;SDS011;15351;52.408;16.826;2023-04-29T16:01:45;8.60;;;7.80;;
26435;SDS011;15351;52.408;16.826;2023-04-29T16:04:15;8.80;;;7.90;;
26435;SDS011;15351;52.408;16.826;2023-04-29T16:07:01;10.40;;;9.40;;
26435;SDS011;15351;52.408;16.826;2023-04-29T16:09:39;12.50;;;11.20;;
26435;SDS011;15351;52.408;16.826;2023-04-29T16:12:23;11.20;;;10.10;;
26435;SDS011;15351;52.408;16.826;2023-04-29T16:15:07;11.30;;;10.10;;
26435;SDS011;15351;52.408;16.826;2023-04-29T16:17:55;10.40;;;9.40;;
26435;SDS011;15351;52.408;16.826;2023-04-29T16:20:34;10.90;;;9.80;;
26435;SDS011;15351;52.408;16.826;2023-04-29T16:26:05;13.40;;;11.90;;
26435;SDS011;15351;52.408;16.826;2023-04-29T16:28:38;13.00;;;11.40;;
26435;SDS011;15351;52.408;16.826;2023-04-29T16:32:02;13.70;;;12.30;;
26435;SDS011;15351;52.408;16.826;2023-04-29T16:34:30;15.20;;;13.10;;
26435;SDS011;15351;52.408;16.826;2023-04-29T16:36:59;16.50;;;13.50;;
26435;SDS011;15351;52.408;16.826;2023-04-29T16:39:39;15.10;;;13.30;;
26435;SDS011;15351;52.408;16.826;2023-04-29T16:42:06;16.40;;;13.90;;
26435;SDS011;15351;52.408;16.826;2023-04-29T16:45:16;16.00;;;14.40;;
26435;SDS011;15351;52.408;16.826;2023-04-29T16:47:43;17.20;;;14.70;;
26435;SDS011;15351;52.408;16.826;2023-04-29T17:00:51;21.70;;;17.80;;
26435;SDS011;15351;52.408;16.826;2023-04-29T17:03:45;18.90;;;16.60;;
26435;SDS011;15351;52.408;16.826;2023-04-29T17:06:45;20.40;;;18.30;;
26435;SDS011;15351;52.408;16.826;2023-04-29T17:19:35;24.60;;;21.30;;
26435;SDS011;15351;52.408;16.826;2023-04-29T17:25:39;28.30;;;22.90;;
26435;SDS011;15351;52.408;16.826;2023-04-29T17:28:24;27.20;;;22.10;;
26435;SDS011;15351;52.408;16.826;2023-04-29T17:34:30;27.10;;;23.40;;
26435;SDS011;15351;52.408;16.826;2023-04-29T17:40:29;33.20;;;25.00;;
26435;SDS011;15351;52.408;16.826;2023-04-29T17:47:12;31.80;;;26.40;;
26435;SDS011;15351;52.408;16.826;2023-04-29T17:49:46;34.90;;;28.10;;
26435;SDS011;15351;52.408;16.826;2023-04-29T17:52:44;39.50;;;28.20;;
26435;SDS011;15351;52.408;16.826;2023-04-29T17:55:23;38.10;;;27.80;;
26435;SDS011;15351;52.408;16.826;2023-04-29T17:58:53;40.70;;;27.40;;
26435;SDS011;15351;52.408;16.826;2023-04-29T18:01:36;37.70;;;27.60;;
26435;SDS011;15351;52.408;16.826;2023-04-29T18:04:49;39.00;;;29.10;;
26435;SDS011;15351;52.408;16.826;2023-04-29T18:08:05;40.20;;;27.40;;
26435;SDS011;15351;52.408;16.826;2023-04-29T18:10:45;34.40;;;25.30;;
26435;SDS011;15351;52.408;16.826;2023-04-29T18:13:28;32.20;;;25.50;;
26435;SDS011;15351;52.408;16.826;2023-04-29T18:16:18;32.30;;;25.60;;
26435;SDS011;15351;52.408;16.826;2023-04-29T18:19:22;33.10;;;23.90;;
26435;SDS011;15351;52.408;16.826;2023-04-29T18:27:11;31.20;;;23.30;;
26435;SDS011;15351;52.408;16.826;2023-04-29T18:37:41;30.10;;;22.10;;
26435;SDS011;15351;52.408;16.826;2023-04-29T18:40:25;34.20;;;26.50;;
26435;SDS011;15351;52.408;16.826;2023-04-29T18:44:45;30.20;;;26.90;;
26435;SDS011;15351;52.408;16.826;2023-04-29T18:47:16;29.50;;;24.10;;
26435;SDS011;15351;52.408;16.826;2023-04-29T18:49:54;36.30;;;32.00;;
26435;SDS011;15351;52.408;16.826;2023-04-29T18:53:12;27.40;;;22.80;;
26435;SDS011;15351;52.408;16.826;2023-04-29T18:56:46;26.90;;;22.30;;
26435;SDS011;15351;52.408;16.826;2023-04-29T18:59:18;26.00;;;22.40;;
26435;SDS011;15351;52.408;16.826;2023-04-29T19:02:28;25.10;;;20.20;;
26435;SDS011;15351;52.408;16.826;2023-04-29T19:05:49;24.80;;;19.40;;
26435;SDS011;15351;52.408;16.826;2023-04-29T19:12:33;19.80;;;17.30;;
26435;SDS011;15351;52.408;16.826;2023-04-29T19:19:08;18.10;;;15.00;;
26435;SDS011;15351;52.408;16.826;2023-04-29T19:22:07;16.40;;;13.60;;
26435;SDS011;15351;52.408;16.826;2023-04-29T19:25:16;14.80;;;13.20;;
26435;SDS011;15351;52.408;16.826;2023-04-29T19:28:45;18.30;;;14.60;;
26435;SDS011;15351;52.408;16.826;2023-04-29T19:36:12;15.80;;;12.70;;
26435;SDS011;15351;52.408;16.826;2023-04-29T19:39:56;17.00;;;13.10;;
26435;SDS011;15351;52.408;16.826;2023-04-29T19:43:24;16.30;;;12.60;;
26435;SDS011;15351;52.408;16.826;2023-04-29T19:47:17;15.10;;;12.30;;
26435;SDS011;15351;52.408;16.826;2023-04-29T19:50:44;15.60;;;11.70;;
26435;SDS011;15351;52.408;16.826;2023-04-29T19:57:13;17.00;;;12.20;;
26435;SDS011;15351;52.408;16.826;2023-04-29T20:04:53;15.00;;;11.90;;
26435;SDS011;15351;52.408;16.826;2023-04-29T20:14:30;12.90;;;11.10;;
26435;SDS011;15351;52.408;16.826;2023-04-29T20:17:06;13.70;;;11.80;;
26435;SDS011;15351;52.408;16.826;2023-04-29T20:20:10;15.20;;;12.60;;
26435;SDS011;15351;52.408;16.826;2023-04-29T20:26:06;12.30;;;10.40;;
26435;SDS011;15351;52.408;16.826;2023-04-29T20:29:41;14.50;;;11.70;;
26435;SDS011;15351;52.408;16.826;2023-04-29T20:43:38;13.80;;;10.40;;
26435;SDS011;15351;52.408;16.826;2023-04-29T20:57:12;13.60;;;10.40;;
26435;SDS011;15351;52.408;16.826;2023-04-29T21:24:12;14.40;;;10.50;;
26435;SDS011;15351;52.408;16.826;2023-04-29T21:32:02;12.90;;;10.30;;
26435;SDS011;15351;52.408;16.826;2023-04-29T21:38:47;14.50;;;10.90;;
26435;SDS011;15351;52.408;16.826;2023-04-29T21:58:43;13.50;;;10.90;;
26435;SDS011;15351;52.408;16.826;2023-04-29T22:13:22;14.60;;;11.60;;
26435;SDS011;15351;52.408;16.826;2023-04-29T22:16:43;17.40;;;11.90;;
26435;SDS011;15351;52.408;16.826;2023-04-29T22:23:26;15.00;;;11.40;;
26435;SDS011;15351;52.408;16.826;2023-04-29T22:47:41;21.30;;;15.20;;
26435;SDS011;15351;52.408;16.826;2023-04-29T22:51:03;21.10;;;14.80;;